sensor_id;sensor_type;location;lat;lon;timestamp;P1;durP1;ratioP1;P2;durP2;ratioP2
32788;SDS011;19141;48.980;8.410;2023-07-24T04:22:33;9.90;;;5.68;;
32788;SDS011;19141;48.980;8.410;2023-07-24T04:24:59;9.07;;;5.88;;
32788;SDS011;19141;48.980;8.410;2023-07-24T04:27:24;8.30;;;5.85;;
32788;SDS011;19141;48.980;8.410;2023-07-24T04:29:49;9.10;;;5.72;;
32788;SDS011;19141;48.980;8.410;2023-07-24T04:32:15;9.27;;;6.20;;
32788;SDS011;19141;48.980;8.410;2023-07-24T04:34:40;9.98;;;6.20;;
32788;SDS011;19141;48.980;8.410;2023-07-24T04:37:06;8.90;;;5.32;;
32788;SDS011;19141;48.980;8.410;2023-07-24T04:39:31;8.55;;;5.97;;
32788;SDS011;19141;48.980;8.410;2023-07-24T04:41:56;8.02;;;5.40;;
32788;SDS011;19141;48.980;8.410;2023-07-24T04:44:22;9.35;;;5.78;;
32788;SDS011;19141;48.980;8.410;2023-07-24T04:46:47;9.27;;;5.93;;
32788;SDS011;19141;48.980;8.410;2023-07-24T04:49:12;9.98;;;5.68;;
32788;SDS011;19141;48.980;8.410;2023-07-24T04:51:38;10.40;;;5.88;;
32788;SDS011;19141;48.980;8.410;2023-07-24T04:54:03;8.65;;;5.60;;
32788;SDS011;19141;48.980;8.410;2023-07-24T04:56:29;8.57;;;5.38;;
32788;SDS011;19141;48.980;8.410;2023-07-24T04:58:54;9.18;;;5.70;;
32788;SDS011;19141;48.980;8.410;2023-07-24T05:01:19;9.52;;;6.13;;
32788;SDS011;19141;48.980;8.410;2023-07-24T05:03:45;8.70;;;5.65;;
32788;SDS011;19141;48.980;8.410;2023-07-24T05:06:10;10.63;;;6.35;;
32788;SDS011;19141;48.980;8.410;2023-07-24T05:08:35;9.35;;;7.03;;
32788;SDS011;19141;48.980;8.410;2023-07-24T05:11:01;7.75;;;5.90;;
32788;SDS011;19141;48.980;8.410;2023-07-24T05:13:26;8.13;;;5.25;;
32788;SDS011;19141;48.980;8.410;2023-07-24T05:15:52;7.00;;;5.60;;
32788;SDS011;19141;48.980;8.410;2023-07-24T05:18:17;7.47;;;5.43;;
32788;SDS011;19141;48.980;8.410;2023-07-24T05:20:44;10.40;;;6.13;;
32788;SDS011;19141;48.980;8.410;2023-07-24T05:23:11;9.10;;;5.90;;
32788;SDS011;19141;48.980;8.410;2023-07-24T05:25:36;15.63;;;12.02;;
32788;SDS011;19141;48.980;8.410;2023-07-24T05:28:02;9.77;;;5.82;;
32788;SDS011;19141;48.980;8.410;2023-07-24T05:30:27;10.80;;;6.78;;
32788;SDS011;19141;48.980;8.410;2023-07-24T05:32:53;9.32;;;6.43;;
32788;SDS011;19141;48.980;8.410;2023-07-24T05:35:18;7.18;;;5.38;;
32788;SDS011;19141;48.980;8.410;2023-07-24T05:37:44;8.05;;;5.07;;
32788;SDS011;19141;48.980;8.410;2023-07-24T05:40:09;11.18;;;5.88;;
32788;SDS011;19141;48.980;8.410;2023-07-24T05:42:35;8.20;;;5.70;;
32788;SDS011;19141;48.980;8.410;2023-07-24T05:45:06;10.55;;;6.10;;
32788;SDS011;19141;48.980;8.410;2023-07-24T05:47:33;9.98;;;5.15;;
32788;SDS011;19141;48.980;8.410;2023-07-24T05:49:58;8.43;;;5.28;;
32788;SDS011;19141;48.980;8.410;2023-07-24T05:52:24;10.15;;;5.75;;
32788;SDS011;19141;48.980;8.410;2023-07-24T05:54:49;8.65;;;5.80;;
32788;SDS011;19141;48.980;8.410;2023-07-24T05:57:14;8.02;;;5.22;;
32788;SDS011;19141;48.980;8.410;2023-07-24T05:59:40;8.98;;;5.45;;
32788;SDS011;19141;48.980;8.410;2023-07-24T06:02:05;9.55;;;5.90;;
32788;SDS011;19141;48.980;8.410;2023-07-24T06:04:32;8.90;;;5.72;;
32788;SDS011;19141;48.980;8.410;2023-07-24T06:06:57;10.27;;;5.72;;
32788;SDS011;19141;48.980;8.410;2023-07-24T06:09:23;9.50;;;6.10;;
32788;SDS011;19141;48.980;8.410;2023-07-24T06:11:48;8.55;;;5.80;;
32788;SDS011;19141;48.980;8.410;2023-07-24T06:14:14;7.85;;;5.30;;
32788;SDS011;19141;48.980;8.410;2023-07-24T06:16:39;7.85;;;5.18;;
32788;SDS011;19141;48.980;8.410;2023-07-24T06:19:05;10.05;;;5.47;;
32788;SDS011;19141;48.980;8.410;2023-07-24T06:21:30;29.88;;;19.58;;
32788;SDS011;19141;48.980;8.410;2023-07-24T06:23:55;12.55;;;7.93;;
32788;SDS011;19141;48.980;8.410;2023-07-24T06:26:21;8.63;;;6.32;;
32788;SDS011;19141;48.980;8.410;2023-07-24T06:28:46;13.25;;;8.88;;
32788;SDS011;19141;48.980;8.410;2023-07-24T06:31:12;9.32;;;6.03;;
32788;SDS011;19141;48.980;8.410;2023-07-24T06:33:37;11.00;;;6.53;;
32788;SDS011;19141;48.980;8.410;2023-07-24T06:36:03;8.18;;;5.13;;
32788;SDS011;19141;48.980;8.410;2023-07-24T06:38:28;10.18;;;5.53;;
32788;SDS011;19141;48.980;8.410;2023-07-24T06:40:54;7.13;;;5.50;;
32788;SDS011;19141;48.980;8.410;2023-07-24T06:43:19;7.60;;;5.03;;
32788;SDS011;19141;48.980;8.410;2023-07-24T06:45:45;7.70;;;5.10;;
32788;SDS011;19141;48.980;8.410;2023-07-24T06:48:10;8.55;;;5.75;;
32788;SDS011;19141;48.980;8.410;2023-07-24T06:50:35;9.32;;;5.28;;
32788;SDS011;19141;48.980;8.410;2023-07-24T06:53:01;9.02;;;5.60;;
32788;SDS011;19141;48.980;8.410;2023-07-24T06:55:26;6.60;;;5.15;;
32788;SDS011;19141;48.980;8.410;2023-07-24T06:57:52;9.10;;;5.80;;
32788;SDS011;19141;48.980;8.410;2023-07-24T07:00:17;10.05;;;5.57;;
32788;SDS011;19141;48.980;8.410;2023-07-24T07:02:43;19.85;;;13.13;;
32788;SDS011;19141;48.980;8.410;2023-07-24T07:05:08;15.00;;;9.50;;
32788;SDS011;19141;48.980;8.410;2023-07-24T07:07:33;7.75;;;5.63;;
32788;SDS011;19141;48.980;8.410;2023-07-24T07:09:59;10.48;;;5.18;;
32788;SDS011;19141;48.980;8.410;2023-07-24T07:12:24;9.13;;;5.13;;
32788;SDS011;19141;48.980;8.410;2023-07-24T07:14:49;10.57;;;5.55;;
32788;SDS011;19141;48.980;8.410;2023-07-24T07:17:15;7.70;;;5.50;;
32788;SDS011;19141;48.980;8.410;2023-07-24T07:19:40;8.20;;;6.40;;
32788;SDS011;19141;48.980;8.410;2023-07-24T07:22:06;9.18;;;6.10;;
32788;SDS011;19141;48.980;8.410;2023-07-24T07:24:31;10.77;;;6.60;;
32788;SDS011;19141;48.980;8.410;2023-07-24T07:26:57;10.73;;;5.93;;
32788;SDS011;19141;48.980;8.410;2023-07-24T07:29:22;9.68;;;6.13;;
32788;SDS011;19141;48.980;8.410;2023-07-24T07:31:47;12.30;;;6.50;;
32788;SDS011;19141;48.980;8.410;2023-07-24T07:34:13;10.90;;;6.63;;
32788;SDS011;19141;48.980;8.410;2023-07-24T07:36:38;15.45;;;7.07;;
32788;SDS011;19141;48.980;8.410;2023-07-24T07:39:03;8.82;;;5.45;;
32788;SDS011;19141;48.980;8.410;2023-07-24T07:41:29;12.30;;;6.10;;
32788;SDS011;19141;48.980;8.410;2023-07-24T07:43:54;10.18;;;6.65;;
32788;SDS011;19141;48.980;8.410;2023-07-24T07:46:20;9.95;;;6.22;;
32788;SDS011;19141;48.980;8.410;2023-07-24T07:48:45;10.90;;;6.60;;
32788;SDS011;19141;48.980;8.410;2023-07-24T07:51:14;11.50;;;7.00;;
32788;SDS011;19141;48.980;8.410;2023-07-24T07:53:40;11.68;;;7.22;;
32788;SDS011;19141;48.980;8.410;2023-07-24T07:56:05;9.98;;;6.65;;
32788;SDS011;19141;48.980;8.410;2023-07-24T07:58:30;9.27;;;6.22;;
32788;SDS011;19141;48.980;8.410;2023-07-24T08:00:56;8.68;;;6.13;;
32788;SDS011;19141;48.980;8.410;2023-07-24T08:03:21;10.32;;;6.57;;
32788;SDS011;19141;48.980;8.410;2023-07-24T08:05:47;9.35;;;6.30;;
32788;SDS011;19141;48.980;8.410;2023-07-24T08:08:12;10.60;;;6.38;;
32788;SDS011;19141;48.980;8.410;2023-07-24T08:10:38;10.95;;;5.45;;
32788;SDS011;19141;48.980;8.410;2023-07-24T08:13:04;8.57;;;6.00;;
32788;SDS011;19141;48.980;8.410;2023-07-24T08:15:33;11.13;;;6.38;;
32788;SDS011;19141;48.980;8.410;2023-07-24T08:18:03;10.88;;;6.80;;
32788;SDS011;19141;48.980;8.410;2023-07-24T08:20:29;11.25;;;6.35;;
32788;SDS011;19141;48.980;8.410;2023-07-24T08:22:55;9.23;;;6.35;;
32788;SDS011;19141;48.980;8.410;2023-07-24T08:25:20;10.52;;;7.00;;
32788;SDS011;19141;48.980;8.410;2023-07-24T08:27:46;9.43;;;6.80;;
32788;SDS011;19141;48.980;8.410;2023-07-24T08:30:11;10.43;;;5.75;;
32788;SDS011;19141;48.980;8.410;2023-07-24T08:32:36;9.90;;;6.90;;
32788;SDS011;19141;48.980;8.410;2023-07-24T08:35:02;13.32;;;6.10;;
32788;SDS011;19141;48.980;8.410;2023-07-24T08:37:28;9.07;;;5.95;;
32788;SDS011;19141;48.980;8.410;2023-07-24T08:39:53;8.45;;;6.07;;
32788;SDS011;19141;48.980;8.410;2023-07-24T08:42:18;10.43;;;6.43;;
32788;SDS011;19141;48.980;8.410;2023-07-24T08:44:45;9.70;;;5.97;;
32788;SDS011;19141;48.980;8.410;2023-07-24T08:47:10;9.88;;;5.82;;
32788;SDS011;19141;48.980;8.410;2023-07-24T08:49:39;10.38;;;5.50;;
32788;SDS011;19141;48.980;8.410;2023-07-24T08:52:08;7.38;;;5.57;;
32788;SDS011;19141;48.980;8.410;2023-07-24T08:54:37;7.30;;;5.03;;
32788;SDS011;19141;48.980;8.410;2023-07-24T08:57:04;9.00;;;5.70;;
32788;SDS011;19141;48.980;8.410;2023-07-24T08:59:31;10.00;;;5.70;;
32788;SDS011;19141;48.980;8.410;2023-07-24T09:01:57;9.68;;;6.28;;
32788;SDS011;19141;48.980;8.410;2023-07-24T09:04:23;10.63;;;5.97;;
32788;SDS011;19141;48.980;8.410;2023-07-24T09:06:49;8.65;;;5.35;;
32788;SDS011;19141;48.980;8.410;2023-07-24T09:09:15;9.45;;;5.45;;
32788;SDS011;19141;48.980;8.410;2023-07-24T09:11:51;10.85;;;5.15;;
32788;SDS011;19141;48.980;8.410;2023-07-24T09:19:31;8.23;;;4.93;;
32788;SDS011;19141;48.980;8.410;2023-07-24T09:22:06;8.48;;;5.20;;
32788;SDS011;19141;48.980;8.410;2023-07-24T09:24:36;7.72;;;5.32;;
32788;SDS011;19141;48.980;8.410;2023-07-24T09:27:04;8.27;;;5.75;;
32788;SDS011;19141;48.980;8.410;2023-07-24T09:29:31;8.35;;;4.75;;
32788;SDS011;19141;48.980;8.410;2023-07-24T09:31:58;7.35;;;5.15;;
32788;SDS011;19141;48.980;8.410;2023-07-24T09:34:24;7.43;;;4.93;;
32788;SDS011;19141;48.980;8.410;2023-07-24T09:36:51;9.27;;;5.17;;
32788;SDS011;19141;48.980;8.410;2023-07-24T09:39:22;6.78;;;4.28;;
32788;SDS011;19141;48.980;8.410;2023-07-24T09:41:48;9.52;;;5.65;;
32788;SDS011;19141;48.980;8.410;2023-07-24T09:44:14;6.03;;;3.97;;
32788;SDS011;19141;48.980;8.410;2023-07-24T09:46:40;6.50;;;4.63;;
32788;SDS011;19141;48.980;8.410;2023-07-24T09:49:08;7.45;;;4.75;;
32788;SDS011;19141;48.980;8.410;2023-07-24T09:51:34;7.07;;;4.95;;
32788;SDS011;19141;48.980;8.410;2023-07-24T09:56:54;6.78;;;4.95;;
32788;SDS011;19141;48.980;8.410;2023-07-24T09:59:20;8.15;;;4.57;;
32788;SDS011;19141;48.980;8.410;2023-07-24T10:01:47;7.50;;;4.95;;
32788;SDS011;19141;48.980;8.410;2023-07-24T10:04:13;7.35;;;4.85;;
32788;SDS011;19141;48.980;8.410;2023-07-24T10:06:41;7.70;;;4.70;;
32788;SDS011;19141;48.980;8.410;2023-07-24T10:09:07;5.90;;;4.22;;
32788;SDS011;19141;48.980;8.410;2023-07-24T10:11:34;7.15;;;4.78;;
32788;SDS011;19141;48.980;8.410;2023-07-24T10:13:59;6.28;;;4.50;;
32788;SDS011;19141;48.980;8.410;2023-07-24T10:16:25;6.83;;;4.37;;
32788;SDS011;19141;48.980;8.410;2023-07-24T10:18:51;8.75;;;4.78;;
32788;SDS011;19141;48.980;8.410;2023-07-24T10:21:16;7.20;;;4.47;;
32788;SDS011;19141;48.980;8.410;2023-07-24T10:23:43;7.20;;;4.97;;
32788;SDS011;19141;48.980;8.410;2023-07-24T10:26:09;7.82;;;4.72;;
32788;SDS011;19141;48.980;8.410;2023-07-24T10:28:36;6.80;;;5.13;;
32788;SDS011;19141;48.980;8.410;2023-07-24T10:31:06;7.43;;;4.95;;
32788;SDS011;19141;48.980;8.410;2023-07-24T10:33:44;5.95;;;4.25;;
32788;SDS011;19141;48.980;8.410;2023-07-24T10:36:10;7.05;;;4.72;;
32788;SDS011;19141;48.980;8.410;2023-07-24T10:38:38;7.10;;;4.97;;
32788;SDS011;19141;48.980;8.410;2023-07-24T10:41:06;7.90;;;4.50;;
32788;SDS011;19141;48.980;8.410;2023-07-24T10:43:40;7.00;;;4.88;;
32788;SDS011;19141;48.980;8.410;2023-07-24T10:46:05;7.25;;;4.57;;
32788;SDS011;19141;48.980;8.410;2023-07-24T10:48:31;7.38;;;4.55;;
32788;SDS011;19141;48.980;8.410;2023-07-24T10:50:56;6.57;;;4.13;;
32788;SDS011;19141;48.980;8.410;2023-07-24T10:53:22;7.88;;;4.57;;
32788;SDS011;19141;48.980;8.410;2023-07-24T10:55:48;10.18;;;5.25;;
32788;SDS011;19141;48.980;8.410;2023-07-24T10:58:16;6.22;;;4.35;;
32788;SDS011;19141;48.980;8.410;2023-07-24T11:00:42;7.18;;;4.45;;
32788;SDS011;19141;48.980;8.410;2023-07-24T11:03:12;7.35;;;4.53;;
32788;SDS011;19141;48.980;8.410;2023-07-24T11:05:42;5.03;;;4.07;;
32788;SDS011;19141;48.980;8.410;2023-07-24T11:08:12;7.47;;;4.65;;
32788;SDS011;19141;48.980;8.410;2023-07-24T11:10:46;7.25;;;4.47;;
32788;SDS011;19141;48.980;8.410;2023-07-24T11:13:19;6.72;;;4.22;;
32788;SDS011;19141;48.980;8.410;2023-07-24T11:15:52;6.90;;;4.75;;
32788;SDS011;19141;48.980;8.410;2023-07-24T11:18:19;6.22;;;4.05;;
32788;SDS011;19141;48.980;8.410;2023-07-24T11:20:53;5.97;;;4.38;;
32788;SDS011;19141;48.980;8.410;2023-07-24T11:23:20;5.68;;;4.10;;
32788;SDS011;19141;48.980;8.410;2023-07-24T11:25:47;5.70;;;3.97;;
32788;SDS011;19141;48.980;8.410;2023-07-24T11:28:15;5.38;;;4.25;;
32788;SDS011;19141;48.980;8.410;2023-07-24T11:30:41;6.30;;;4.22;;
32788;SDS011;19141;48.980;8.410;2023-07-24T11:33:08;5.63;;;4.10;;
32788;SDS011;19141;48.980;8.410;2023-07-24T11:35:34;6.60;;;4.82;;
32788;SDS011;19141;48.980;8.410;2023-07-24T11:38:01;6.05;;;4.07;;
32788;SDS011;19141;48.980;8.410;2023-07-24T11:40:45;5.50;;;4.05;;
32788;SDS011;19141;48.980;8.410;2023-07-24T11:43:17;5.15;;;3.72;;
32788;SDS011;19141;48.980;8.410;2023-07-24T11:45:44;5.45;;;3.83;;
32788;SDS011;19141;48.980;8.410;2023-07-24T11:48:11;5.45;;;3.75;;
32788;SDS011;19141;48.980;8.410;2023-07-24T11:50:43;6.88;;;4.47;;
32788;SDS011;19141;48.980;8.410;2023-07-24T11:53:23;5.03;;;3.85;;
32788;SDS011;19141;48.980;8.410;2023-07-24T11:55:51;5.55;;;3.83;;
32788;SDS011;19141;48.980;8.410;2023-07-24T11:58:20;6.45;;;4.38;;
32788;SDS011;19141;48.980;8.410;2023-07-24T12:00:46;7.28;;;3.95;;
32788;SDS011;19141;48.980;8.410;2023-07-24T12:03:13;6.60;;;3.97;;
32788;SDS011;19141;48.980;8.410;2023-07-24T12:05:51;6.22;;;4.18;;
32788;SDS011;19141;48.980;8.410;2023-07-24T12:08:18;5.93;;;4.30;;
32788;SDS011;19141;48.980;8.410;2023-07-24T12:10:46;5.72;;;3.83;;
32788;SDS011;19141;48.980;8.410;2023-07-24T12:13:11;7.10;;;3.80;;
32788;SDS011;19141;48.980;8.410;2023-07-24T12:15:37;5.80;;;3.97;;
32788;SDS011;19141;48.980;8.410;2023-07-24T12:18:03;5.90;;;4.35;;
32788;SDS011;19141;48.980;8.410;2023-07-24T12:20:30;6.03;;;4.13;;
32788;SDS011;19141;48.980;8.410;2023-07-24T12:22:56;4.93;;;3.53;;
32788;SDS011;19141;48.980;8.410;2023-07-24T12:25:22;5.95;;;3.60;;
32788;SDS011;19141;48.980;8.410;2023-07-24T12:27:47;6.82;;;4.18;;
32788;SDS011;19141;48.980;8.410;2023-07-24T12:30:13;6.03;;;3.90;;
32788;SDS011;19141;48.980;8.410;2023-07-24T12:32:39;6.05;;;3.83;;
32788;SDS011;19141;48.980;8.410;2023-07-24T12:35:04;6.13;;;3.60;;
32788;SDS011;19141;48.980;8.410;2023-07-24T12:37:30;5.68;;;4.10;;
32788;SDS011;19141;48.980;8.410;2023-07-24T12:40:05;5.55;;;3.55;;
32788;SDS011;19141;48.980;8.410;2023-07-24T12:43:36;6.22;;;4.38;;
32788;SDS011;19141;48.980;8.410;2023-07-24T12:46:14;5.72;;;3.65;;
32788;SDS011;19141;48.980;8.410;2023-07-24T12:52:44;5.18;;;3.55;;
32788;SDS011;19141;48.980;8.410;2023-07-24T13:01:20;5.38;;;3.42;;
32788;SDS011;19141;48.980;8.410;2023-07-24T13:04:22;6.07;;;3.70;;
32788;SDS011;19141;48.980;8.410;2023-07-24T13:06:57;5.53;;;3.75;;
32788;SDS011;19141;48.980;8.410;2023-07-24T13:12:27;6.07;;;4.00;;
32788;SDS011;19141;48.980;8.410;2023-07-24T13:15:28;5.47;;;3.53;;
32788;SDS011;19141;48.980;8.410;2023-07-24T13:18:14;7.15;;;3.78;;
32788;SDS011;19141;48.980;8.410;2023-07-24T13:21:06;7.85;;;4.03;;
32788;SDS011;19141;48.980;8.410;2023-07-24T13:24:15;7.00;;;3.85;;
32788;SDS011;19141;48.980;8.410;2023-07-24T13:26:46;6.07;;;4.30;;
32788;SDS011;19141;48.980;8.410;2023-07-24T13:32:06;5.03;;;3.63;;
32788;SDS011;19141;48.980;8.410;2023-07-24T13:35:15;15.20;;;4.75;;
32788;SDS011;19141;48.980;8.410;2023-07-24T13:38:00;5.70;;;3.70;;
32788;SDS011;19141;48.980;8.410;2023-07-24T13:40:46;6.68;;;4.20;;
32788;SDS011;19141;48.980;8.410;2023-07-24T13:43:29;6.05;;;4.03;;
32788;SDS011;19141;48.980;8.410;2023-07-24T13:46:34;6.63;;;3.83;;
32788;SDS011;19141;48.980;8.410;2023-07-24T13:49:23;5.97;;;3.95;;
32788;SDS011;19141;48.980;8.410;2023-07-24T13:55:32;8.18;;;4.00;;
32788;SDS011;19141;48.980;8.410;2023-07-24T13:58:10;6.32;;;3.88;;
32788;SDS011;19141;48.980;8.410;2023-07-24T14:01:13;6.50;;;4.20;;
32788;SDS011;19141;48.980;8.410;2023-07-24T14:03:48;5.38;;;4.03;;
32788;SDS011;19141;48.980;8.410;2023-07-24T14:06:19;7.63;;;4.30;;
32788;SDS011;19141;48.980;8.410;2023-07-24T14:08:56;6.32;;;3.95;;
32788;SDS011;19141;48.980;8.410;2023-07-24T14:11:38;7.17;;;4.13;;
32788;SDS011;19141;48.980;8.410;2023-07-24T14:14:56;6.47;;;3.78;;
32788;SDS011;19141;48.980;8.410;2023-07-24T14:17:59;8.32;;;4.15;;
32788;SDS011;19141;48.980;8.410;2023-07-24T14:20:58;9.27;;;4.78;;
32788;SDS011;19141;48.980;8.410;2023-07-24T14:24:00;8.63;;;4.03;;
32788;SDS011;19141;48.980;8.410;2023-07-24T14:26:52;5.45;;;3.72;;
32788;SDS011;19141;48.980;8.410;2023-07-24T14:33:10;6.65;;;4.03;;
32788;SDS011;19141;48.980;8.410;2023-07-24T14:35:50;6.78;;;4.28;;
32788;SDS011;19141;48.980;8.410;2023-07-24T14:41:23;5.53;;;3.33;;
32788;SDS011;19141;48.980;8.410;2023-07-24T14:48:15;5.80;;;3.28;;
32788;SDS011;19141;48.980;8.410;2023-07-24T14:51:13;6.10;;;3.65;;
32788;SDS011;19141;48.980;8.410;2023-07-24T14:53:59;8.00;;;5.80;;
32788;SDS011;19141;48.980;8.410;2023-07-24T15:00:22;5.20;;;3.05;;
32788;SDS011;19141;48.980;8.410;2023-07-24T15:04:03;5.38;;;3.35;;
32788;SDS011;19141;48.980;8.410;2023-07-24T15:09:50;7.03;;;3.85;;
32788;SDS011;19141;48.980;8.410;2023-07-24T15:12:39;7.00;;;3.50;;
32788;SDS011;19141;48.980;8.410;2023-07-24T15:15:29;6.22;;;3.60;;
32788;SDS011;19141;48.980;8.410;2023-07-24T15:18:21;7.32;;;3.85;;
32788;SDS011;19141;48.980;8.410;2023-07-24T15:24:32;12.70;;;4.30;;
32788;SDS011;19141;48.980;8.410;2023-07-24T15:27:39;7.07;;;3.50;;
32788;SDS011;19141;48.980;8.410;2023-07-24T15:30:36;5.18;;;3.35;;
32788;SDS011;19141;48.980;8.410;2023-07-24T15:33:12;6.57;;;4.32;;
32788;SDS011;19141;48.980;8.410;2023-07-24T15:36:18;6.90;;;3.73;;
32788;SDS011;19141;48.980;8.410;2023-07-24T15:39:21;5.93;;;3.58;;
32788;SDS011;19141;48.980;8.410;2023-07-24T15:42:08;9.23;;;4.15;;
32788;SDS011;19141;48.980;8.410;2023-07-24T15:45:00;6.80;;;3.33;;
32788;SDS011;19141;48.980;8.410;2023-07-24T15:47:51;5.75;;;3.88;;
32788;SDS011;19141;48.980;8.410;2023-07-24T15:54:18;6.32;;;3.85;;
32788;SDS011;19141;48.980;8.410;2023-07-24T15:56:49;4.72;;;3.08;;
32788;SDS011;19141;48.980;8.410;2023-07-24T15:59:35;5.55;;;3.42;;
32788;SDS011;19141;48.980;8.410;2023-07-24T16:02:09;5.35;;;3.50;;
32788;SDS011;19141;48.980;8.410;2023-07-24T16:05:03;5.93;;;3.15;;
32788;SDS011;19141;48.980;8.410;2023-07-24T16:07:54;5.38;;;3.30;;
32788;SDS011;19141;48.980;8.410;2023-07-24T16:10:26;5.38;;;3.00;;
32788;SDS011;19141;48.980;8.410;2023-07-24T16:13:04;5.40;;;2.85;;
32788;SDS011;19141;48.980;8.410;2023-07-24T16:16:00;4.22;;;3.05;;
32788;SDS011;19141;48.980;8.410;2023-07-24T16:18:30;6.05;;;3.05;;
32788;SDS011;19141;48.980;8.410;2023-07-24T16:21:03;4.72;;;2.83;;
32788;SDS011;19141;48.980;8.410;2023-07-24T16:23:44;6.30;;;3.17;;
32788;SDS011;19141;48.980;8.410;2023-07-24T16:26:33;8.77;;;5.80;;
32788;SDS011;19141;48.980;8.410;2023-07-24T16:29:05;5.80;;;3.30;;
32788;SDS011;19141;48.980;8.410;2023-07-24T16:32:02;4.90;;;2.65;;
32788;SDS011;19141;48.980;8.410;2023-07-24T16:34:50;5.37;;;3.13;;
32788;SDS011;19141;48.980;8.410;2023-07-24T16:37:33;5.50;;;3.20;;
32788;SDS011;19141;48.980;8.410;2023-07-24T16:39:58;4.90;;;2.08;;
32788;SDS011;19141;48.980;8.410;2023-07-24T16:42:32;3.92;;;2.70;;
32788;SDS011;19141;48.980;8.410;2023-07-24T16:45:19;5.13;;;2.95;;
32788;SDS011;19141;48.980;8.410;2023-07-24T16:50:50;4.05;;;2.20;;
32788;SDS011;19141;48.980;8.410;2023-07-24T16:54:01;3.22;;;2.33;;
32788;SDS011;19141;48.980;8.410;2023-07-24T16:57:10;5.10;;;2.50;;
32788;SDS011;19141;48.980;8.410;2023-07-24T16:59:41;3.13;;;2.10;;
32788;SDS011;19141;48.980;8.410;2023-07-24T17:02:25;2.47;;;1.70;;
32788;SDS011;19141;48.980;8.410;2023-07-24T17:05:13;4.47;;;2.45;;
32788;SDS011;19141;48.980;8.410;2023-07-24T17:10:40;2.25;;;1.73;;
32788;SDS011;19141;48.980;8.410;2023-07-24T17:13:42;2.75;;;1.88;;
32788;SDS011;19141;48.980;8.410;2023-07-24T17:16:15;3.22;;;2.33;;
32788;SDS011;19141;48.980;8.410;2023-07-24T17:19:20;3.10;;;1.90;;
32788;SDS011;19141;48.980;8.410;2023-07-24T17:21:54;4.35;;;1.98;;
32788;SDS011;19141;48.980;8.410;2023-07-24T17:24:32;2.08;;;1.60;;
32788;SDS011;19141;48.980;8.410;2023-07-24T17:27:38;2.83;;;1.80;;
32788;SDS011;19141;48.980;8.410;2023-07-24T17:30:23;3.25;;;2.00;;
32788;SDS011;19141;48.980;8.410;2023-07-24T17:32:57;2.60;;;1.80;;
32788;SDS011;19141;48.980;8.410;2023-07-24T17:35:29;2.97;;;1.60;;
32788;SDS011;19141;48.980;8.410;2023-07-24T17:38:02;4.80;;;1.90;;
32788;SDS011;19141;48.980;8.410;2023-07-24T17:40:51;3.50;;;1.58;;
32788;SDS011;19141;48.980;8.410;2023-07-24T17:43:27;3.10;;;1.90;;
32788;SDS011;19141;48.980;8.410;2023-07-24T17:46:13;2.70;;;1.70;;
32788;SDS011;19141;48.980;8.410;2023-07-24T17:52:24;3.78;;;1.80;;
32788;SDS011;19141;48.980;8.410;2023-07-24T17:55:24;2.30;;;1.50;;
32788;SDS011;19141;48.980;8.410;2023-07-24T17:57:53;2.13;;;1.55;;
32788;SDS011;19141;48.980;8.410;2023-07-24T18:00:22;2.67;;;1.60;;
32788;SDS011;19141;48.980;8.410;2023-07-24T18:02:58;2.63;;;1.40;;
32788;SDS011;19141;48.980;8.410;2023-07-24T18:05:33;2.90;;;1.80;;
32788;SDS011;19141;48.980;8.410;2023-07-24T18:08:02;2.65;;;1.40;;
32788;SDS011;19141;48.980;8.410;2023-07-24T18:10:34;2.40;;;1.65;;
32788;SDS011;19141;48.980;8.410;2023-07-24T18:13:26;1.70;;;1.40;;
32788;SDS011;19141;48.980;8.410;2023-07-24T18:16:23;2.53;;;1.70;;
32788;SDS011;19141;48.980;8.410;2023-07-24T18:19:06;3.00;;;1.85;;
32788;SDS011;19141;48.980;8.410;2023-07-24T18:21:43;3.25;;;1.83;;
32788;SDS011;19141;48.980;8.410;2023-07-24T18:24:18;1.70;;;1.52;;
32788;SDS011;19141;48.980;8.410;2023-07-24T18:27:06;2.80;;;1.80;;
32788;SDS011;19141;48.980;8.410;2023-07-24T18:29:41;3.17;;;1.95;;
32788;SDS011;19141;48.980;8.410;2023-07-24T18:32:56;2.15;;;1.75;;
32788;SDS011;19141;48.980;8.410;2023-07-24T18:35:35;2.22;;;1.45;;
32788;SDS011;19141;48.980;8.410;2023-07-24T18:38:13;1.90;;;1.58;;
32788;SDS011;19141;48.980;8.410;2023-07-24T18:40:42;2.35;;;1.63;;
32788;SDS011;19141;48.980;8.410;2023-07-24T18:43:11;2.47;;;1.60;;
32788;SDS011;19141;48.980;8.410;2023-07-24T18:46:08;2.33;;;1.40;;
32788;SDS011;19141;48.980;8.410;2023-07-24T18:48:57;2.53;;;1.77;;
32788;SDS011;19141;48.980;8.410;2023-07-24T18:51:54;4.28;;;2.13;;
32788;SDS011;19141;48.980;8.410;2023-07-24T18:54:40;2.50;;;1.88;;
32788;SDS011;19141;48.980;8.410;2023-07-24T18:57:37;2.33;;;1.80;;
32788;SDS011;19141;48.980;8.410;2023-07-24T19:06:41;1.83;;;1.60;;
32788;SDS011;19141;48.980;8.410;2023-07-24T19:09:27;3.28;;;2.25;;
32788;SDS011;19141;48.980;8.410;2023-07-24T19:12:21;3.50;;;2.00;;
32788;SDS011;19141;48.980;8.410;2023-07-24T19:15:05;1.88;;;1.48;;
32788;SDS011;19141;48.980;8.410;2023-07-24T19:18:05;2.80;;;1.77;;
32788;SDS011;19141;48.980;8.410;2023-07-24T19:20:54;2.60;;;2.00;;
32788;SDS011;19141;48.980;8.410;2023-07-24T19:23:50;3.38;;;2.28;;
32788;SDS011;19141;48.980;8.410;2023-07-24T19:26:40;2.70;;;2.00;;
32788;SDS011;19141;48.980;8.410;2023-07-24T19:29:15;3.00;;;1.80;;
32788;SDS011;19141;48.980;8.410;2023-07-24T19:31:59;2.25;;;2.05;;
32788;SDS011;19141;48.980;8.410;2023-07-24T19:35:09;3.70;;;2.10;;
32788;SDS011;19141;48.980;8.410;2023-07-24T19:38:08;4.43;;;2.72;;
32788;SDS011;19141;48.980;8.410;2023-07-24T19:40:37;3.10;;;1.90;;
32788;SDS011;19141;48.980;8.410;2023-07-24T19:43:29;2.65;;;1.70;;
32788;SDS011;19141;48.980;8.410;2023-07-24T19:46:06;4.53;;;2.15;;
32788;SDS011;19141;48.980;8.410;2023-07-24T19:48:47;4.68;;;2.42;;
32788;SDS011;19141;48.980;8.410;2023-07-24T19:51:33;3.28;;;1.88;;
32788;SDS011;19141;48.980;8.410;2023-07-24T19:54:37;4.22;;;1.90;;
32788;SDS011;19141;48.980;8.410;2023-07-24T19:57:04;2.90;;;2.08;;
32788;SDS011;19141;48.980;8.410;2023-07-24T19:59:35;3.53;;;1.80;;
32788;SDS011;19141;48.980;8.410;2023-07-24T20:02:15;2.10;;;1.80;;
32788;SDS011;19141;48.980;8.410;2023-07-24T20:04:51;3.28;;;1.73;;
32788;SDS011;19141;48.980;8.410;2023-07-24T20:07:24;3.83;;;2.13;;
32788;SDS011;19141;48.980;8.410;2023-07-24T20:10:16;4.30;;;2.20;;
32788;SDS011;19141;48.980;8.410;2023-07-24T20:12:52;4.43;;;1.85;;
32788;SDS011;19141;48.980;8.410;2023-07-24T20:15:44;2.95;;;2.10;;
32788;SDS011;19141;48.980;8.410;2023-07-24T20:18:18;3.17;;;1.70;;
32788;SDS011;19141;48.980;8.410;2023-07-24T20:21:04;5.75;;;2.30;;
32788;SDS011;19141;48.980;8.410;2023-07-24T20:26:02;3.50;;;2.28;;
32788;SDS011;19141;48.980;8.410;2023-07-24T20:28:45;4.88;;;2.10;;
32788;SDS011;19141;48.980;8.410;2023-07-24T20:31:26;3.67;;;2.80;;
32788;SDS011;19141;48.980;8.410;2023-07-24T20:34:02;4.20;;;2.50;;
32788;SDS011;19141;48.980;8.410;2023-07-24T20:36:28;4.95;;;2.33;;
32788;SDS011;19141;48.980;8.410;2023-07-24T20:38:59;2.67;;;1.90;;
32788;SDS011;19141;48.980;8.410;2023-07-24T20:41:25;3.25;;;2.00;;
32788;SDS011;19141;48.980;8.410;2023-07-24T20:43:58;4.75;;;2.13;;
32788;SDS011;19141;48.980;8.410;2023-07-24T20:46:33;3.13;;;1.90;;
32788;SDS011;19141;48.980;8.410;2023-07-24T20:48:59;2.45;;;1.70;;
32788;SDS011;19141;48.980;8.410;2023-07-24T20:51:25;2.17;;;1.88;;
32788;SDS011;19141;48.980;8.410;2023-07-24T20:53:51;4.43;;;1.90;;
32788;SDS011;19141;48.980;8.410;2023-07-24T20:56:16;3.17;;;2.03;;
32788;SDS011;19141;48.980;8.410;2023-07-24T20:58:47;4.50;;;1.90;;
32788;SDS011;19141;48.980;8.410;2023-07-24T21:01:13;3.00;;;1.77;;